Time;durP1;ratioP1;P1;durP2;ratioP2;P2;SDS_P1;SDS_P2;PMS_P1;PMS_P2;Temp;Humidity;BMP_temperature;BMP_pressure;BME280_temperature;BME280_humidity;BME280_pressure;Samples;Min_cycle;Max_cycle;Signal;HPM_P1;HPM_P2
2022/03/17 00:00:55;;;;;;;21.42;15.25;;;11.30;99.90;;;;;;5071948;28;20048;-70
2022/03/17 00:03:20;;;;;;;22.40;16.27;;;11.30;99.90;;;;;;5107014;28;20036;-70
2022/03/17 00:05:47;;;;;;;20.05;15.07;;;11.30;99.90;;;;;;5109747;27;20062;-69
2022/03/17 00:08:13;;;;;;;21.92;15.85;;;11.30;99.90;;;;;;5094772;28;20066;-70
2022/03/17 00:10:38;;;;;;;20.60;15.60;;;11.30;99.90;;;;;;5101745;28;20061;-72
2022/03/17 00:13:04;;;;;;;21.70;16.27;;;11.30;99.90;;;;;;5105517;28;20031;-70
2022/03/17 00:15:29;;;;;;;22.48;15.77;;;11.30;99.90;;;;;;5109355;28;20043;-69
2022/03/17 00:17:55;;;;;;;19.77;15.15;;;11.30;99.90;;;;;;5108769;28;20051;-70
2022/03/17 00:20:23;;;;;;;19.55;15.07;;;11.30;99.90;;;;;;5105625;28;20056;-69
2022/03/17 00:22:49;;;;;;;20.80;16.17;;;11.30;99.90;;;;;;5105763;27;20063;-71
2022/03/17 00:25:14;;;;;;;21.85;15.27;;;11.30;99.90;;;;;;5108087;28;20042;-71
2022/03/17 00:27:40;;;;;;;21.67;15.90;;;11.30;99.90;;;;;;5106391;28;20044;-71
2022/03/17 00:30:07;;;;;;;22.83;15.70;;;11.30;99.90;;;;;;5107195;28;20116;-72
2022/03/17 00:32:32;;;;;;;22.58;15.52;;;11.30;99.90;;;;;;5103124;28;20090;-71
2022/03/17 00:37:43;;;;;;;22.25;16.65;;;11.30;99.90;;;;;;5106994;28;20047;-70
2022/03/17 00:40:09;;;;;;;21.77;14.68;;;11.30;99.90;;;;;;5102843;28;20039;-71
2022/03/17 00:42:34;;;;;;;21.10;15.90;;;11.30;99.90;;;;;;5103680;28;20039;-69
2022/03/17 00:45:00;;;;;;;21.05;15.80;;;11.30;99.90;;;;;;5109844;28;20075;-70
2022/03/17 00:47:25;;;;;;;22.15;16.67;;;11.30;99.90;;;;;;5107969;28;20478;-70
2022/03/17 00:49:51;;;;;;;22.55;16.15;;;11.30;99.90;;;;;;5105856;28;20063;-69
2022/03/17 00:52:20;;;;;;;21.83;16.95;;;11.30;99.90;;;;;;5102455;28;20461;-72
2022/03/17 00:54:45;;;;;;;23.38;17.05;;;11.30;99.90;;;;;;5104234;28;20206;-70
2022/03/17 00:57:12;;;;;;;21.27;15.65;;;11.30;99.90;;;;;;5096744;27;20075;-70
2022/03/17 00:59:38;;;;;;;22.13;16.52;;;11.30;99.90;;;;;;5108375;28;20114;-70
2022/03/17 01:02:05;;;;;;;21.08;16.67;;;11.30;99.90;;;;;;5106404;28;20047;-70
2022/03/17 01:04:31;;;;;;;22.13;16.58;;;11.30;99.90;;;;;;5102665;28;20040;-70
2022/03/17 01:06:56;;;;;;;21.73;16.85;;;11.20;99.90;;;;;;5093097;28;20058;-70
2022/03/17 01:09:22;;;;;;;22.77;16.58;;;11.20;99.90;;;;;;5073189;28;20638;-72
2022/03/17 01:11:47;;;;;;;24.75;17.60;;;11.20;99.90;;;;;;5103053;28;20490;-69
2022/03/17 01:14:13;;;;;;;21.05;16.20;;;11.20;99.90;;;;;;5107463;27;20053;-69
2022/03/17 01:16:40;;;;;;;23.25;17.88;;;11.20;99.90;;;;;;5106466;28;20114;-70
2022/03/17 01:19:06;;;;;;;21.92;16.38;;;11.20;99.90;;;;;;5107475;28;20062;-71
2022/03/17 01:21:31;;;;;;;23.70;17.50;;;11.20;99.90;;;;;;5084797;28;20507;-70
2022/03/17 01:23:57;;;;;;;20.83;15.90;;;11.20;99.90;;;;;;5106342;28;20046;-70
2022/03/17 01:26:23;;;;;;;23.80;17.27;;;11.20;99.90;;;;;;5097898;28;20078;-70
2022/03/17 01:28:48;;;;;;;23.90;17.05;;;11.20;99.90;;;;;;5077622;28;20089;-69
2022/03/17 01:31:14;;;;;;;25.05;18.45;;;11.20;99.90;;;;;;5097046;28;20510;-70
2022/03/17 01:33:39;;;;;;;24.58;18.55;;;11.20;99.90;;;;;;5103053;28;20161;-70
2022/03/17 01:36:05;;;;;;;24.08;18.17;;;11.20;99.90;;;;;;5105459;28;20047;-70
2022/03/17 01:38:30;;;;;;;24.70;19.23;;;11.10;99.90;;;;;;5102776;28;20124;-70
2022/03/17 01:40:56;;;;;;;25.80;18.65;;;11.10;99.90;;;;;;5081200;28;20075;-70
2022/03/17 01:43:21;;;;;;;23.50;18.92;;;11.00;99.90;;;;;;5105705;28;20477;-70
2022/03/17 01:45:47;;;;;;;25.38;19.45;;;11.00;99.90;;;;;;5083242;28;20051;-69
2022/03/17 01:48:13;;;;;;;24.58;19.13;;;11.00;99.90;;;;;;5106090;28;20129;-70
2022/03/17 01:50:38;;;;;;;25.73;19.35;;;11.00;99.90;;;;;;5099441;28;20418;-69
2022/03/17 01:53:04;;;;;;;26.70;20.55;;;10.90;99.90;;;;;;5093190;28;20500;-69
2022/03/17 01:55:33;;;;;;;25.52;20.35;;;10.90;99.90;;;;;;5081272;28;20088;-69
2022/03/17 01:57:59;;;;;;;26.23;20.05;;;10.90;99.90;;;;;;5098539;28;20138;-69
2022/03/17 02:00:25;;;;;;;25.70;19.95;;;10.90;99.90;;;;;;5107022;28;20368;-70
2022/03/17 02:02:52;;;;;;;26.83;20.52;;;10.90;99.90;;;;;;5106448;28;20047;-69
2022/03/17 02:05:18;;;;;;;25.70;19.58;;;10.90;99.90;;;;;;5109500;28;20039;-69
2022/03/17 02:07:53;;;;;;;28.05;20.30;;;10.90;99.90;;;;;;5105565;28;20147;-70
2022/03/17 02:10:21;;;;;;;23.98;19.00;;;10.90;99.90;;;;;;5088289;28;20036;-70
2022/03/17 02:15:32;;;;;;;27.00;20.55;;;10.90;99.90;;;;;;5107234;28;20094;-70
2022/03/17 02:17:59;;;;;;;28.58;20.42;;;10.90;99.90;;;;;;5106407;28;20035;-72
2022/03/17 02:20:25;;;;;;;27.15;21.10;;;10.90;99.90;;;;;;5083020;28;20445;-70
2022/03/17 02:22:53;;;;;;;27.23;20.42;;;10.90;99.90;;;;;;5073209;28;20076;-72
2022/03/17 02:25:36;;;;;;;26.92;20.90;;;10.90;99.90;;;;;;5111371;28;20431;-70
2022/03/17 02:28:03;;;;;;;34.28;21.80;;;10.90;99.90;;;;;;5073435;28;20051;-70
2022/03/17 02:30:31;;;;;;;28.42;21.50;;;10.90;99.90;;;;;;5105658;28;20054;-70
2022/03/17 02:33:00;;;;;;;27.83;20.83;;;10.90;99.90;;;;;;5111865;28;20118;-71
2022/03/17 02:35:26;;;;;;;28.10;21.50;;;10.90;99.90;;;;;;5097558;28;20424;-71
2022/03/17 02:37:52;;;;;;;30.60;21.85;;;10.90;99.90;;;;;;5109448;28;20126;-70
2022/03/17 02:40:18;;;;;;;27.60;21.38;;;10.90;99.90;;;;;;5088629;28;20051;-70
2022/03/17 02:42:45;;;;;;;27.23;21.35;;;10.90;99.90;;;;;;5106656;28;20134;-70
2022/03/17 02:45:10;;;;;;;28.92;21.77;;;10.90;99.90;;;;;;5101388;28;20055;-71
2022/03/17 02:47:37;;;;;;;29.92;21.90;;;10.90;99.90;;;;;;5107925;28;20047;-69
2022/03/17 02:50:04;;;;;;;30.75;22.52;;;10.90;99.90;;;;;;5095618;28;20040;-70
2022/03/17 02:52:30;;;;;;;29.27;22.38;;;10.90;99.90;;;;;;5106268;28;20259;-70
2022/03/17 02:54:56;;;;;;;28.30;21.08;;;10.90;99.90;;;;;;5108576;28;20528;-71
2022/03/17 02:57:21;;;;;;;30.20;22.98;;;10.90;99.90;;;;;;5102215;28;20413;-70
2022/03/17 02:59:48;;;;;;;29.67;21.67;;;10.90;99.90;;;;;;5099301;28;20039;-70
2022/03/17 03:02:15;;;;;;;29.55;22.75;;;10.90;99.90;;;;;;5105103;28;20471;-70
2022/03/17 03:04:41;;;;;;;29.63;22.48;;;10.90;99.90;;;;;;5089146;28;20044;-71
2022/03/17 03:07:06;;;;;;;31.30;23.70;;;10.90;99.90;;;;;;5092052;28;20054;-70
2022/03/17 03:09:33;;;;;;;31.25;23.33;;;11.00;99.90;;;;;;5082834;28;20039;-70
2022/03/17 03:11:59;;;;;;;33.05;23.08;;;11.00;99.90;;;;;;5108680;28;20040;-71
2022/03/17 03:14:25;;;;;;;31.80;24.08;;;11.00;99.90;;;;;;5092211;28;20070;-71
2022/03/17 03:16:51;;;;;;;33.33;24.90;;;11.00;99.90;;;;;;5107941;28;20493;-71
2022/03/17 03:19:18;;;;;;;31.63;24.23;;;11.00;99.90;;;;;;5085582;28;21206;-70
2022/03/17 03:21:43;;;;;;;33.33;24.38;;;11.00;99.90;;;;;;5098791;28;20405;-71
2022/03/17 03:24:10;;;;;;;32.83;23.90;;;11.00;99.90;;;;;;5105510;28;20040;-71
2022/03/17 03:26:36;;;;;;;33.17;24.08;;;11.00;99.90;;;;;;5102445;28;20173;-73
2022/03/17 03:29:06;;;;;;;31.83;23.08;;;11.00;99.90;;;;;;5086424;28;20521;-71
2022/03/17 03:31:31;;;;;;;31.77;24.38;;;11.00;99.90;;;;;;5106897;28;20063;-71
2022/03/17 03:33:57;;;;;;;31.55;24.27;;;11.00;99.90;;;;;;5084945;28;20446;-71
2022/03/17 03:39:06;;;;;;;34.72;24.90;;;11.00;99.90;;;;;;5105847;28;20115;-71
2022/03/17 03:41:32;;;;;;;34.50;24.02;;;11.00;99.90;;;;;;5104497;28;20214;-70
2022/03/17 03:43:58;;;;;;;34.03;24.75;;;11.00;99.90;;;;;;5104212;28;20574;-70
2022/03/17 03:46:24;;;;;;;36.63;24.70;;;11.00;99.90;;;;;;5083126;28;20139;-71
2022/03/17 03:48:49;;;;;;;37.22;24.85;;;11.00;99.90;;;;;;5083443;28;20059;-71
2022/03/17 03:51:15;;;;;;;34.47;25.65;;;11.00;99.90;;;;;;5102247;28;20043;-70
2022/03/17 03:54:22;;;;;;;33.67;24.33;;;11.00;99.90;;;;;;5099228;28;20035;-71
2022/03/17 03:56:31;;;;;;;36.10;25.42;;;11.00;99.90;;;;;;5068990;28;20515;-70
2022/03/17 03:58:58;;;;;;;36.80;25.35;;;11.00;99.90;;;;;;5106823;28;20058;-70
2022/03/17 04:01:25;;;;;;;38.97;25.67;;;11.00;99.90;;;;;;5106895;28;20058;-69
2022/03/17 04:03:52;;;;;;;38.08;27.30;;;10.90;99.90;;;;;;5106875;28;20054;-71
2022/03/17 04:06:18;;;;;;;38.38;27.00;;;10.90;99.90;;;;;;5107066;28;20184;-72
2022/03/17 04:08:43;;;;;;;41.78;27.20;;;10.90;99.90;;;;;;5104682;28;20163;-69
2022/03/17 04:11:09;;;;;;;40.45;28.15;;;10.80;99.90;;;;;;5082399;28;20475;-68
2022/03/17 04:13:35;;;;;;;38.60;26.38;;;10.80;99.90;;;;;;5106634;28;20039;-72
2022/03/17 04:16:00;;;;;;;40.00;28.05;;;10.70;99.90;;;;;;5083448;28;20537;-70
2022/03/17 04:18:26;;;;;;;42.60;28.20;;;10.70;99.90;;;;;;5104009;28;20075;-71
2022/03/17 04:20:51;;;;;;;41.97;28.90;;;10.60;99.90;;;;;;5104925;28;20048;-69
2022/03/17 04:23:17;;;;;;;38.72;27.50;;;10.50;99.90;;;;;;5107313;28;20077;-70
2022/03/17 04:25:42;;;;;;;42.60;29.17;;;10.50;99.90;;;;;;5092589;28;20044;-69
2022/03/17 04:28:08;;;;;;;41.22;28.63;;;10.50;99.90;;;;;;5077191;28;20119;-70
2022/03/17 04:30:36;;;;;;;41.75;29.23;;;10.50;99.90;;;;;;5097396;28;20113;-70
2022/03/17 04:33:01;;;;;;;43.58;28.95;;;10.50;99.90;;;;;;5101113;28;20048;-70
2022/03/17 04:35:27;;;;;;;45.30;29.30;;;10.50;99.90;;;;;;5098647;28;20062;-70
2022/03/17 04:37:53;;;;;;;47.53;31.17;;;10.40;99.90;;;;;;5103871;28;20063;-68
2022/03/17 04:40:18;;;;;;;20.98;14.13;;;10.40;99.90;;;;;;5100940;28;20126;-68
2022/03/17 04:42:44;;;;;;;11.45;7.13;;;10.20;99.90;;;;;;5094504;28;20201;-68
2022/03/17 04:45:09;;;;;;;10.00;6.28;;;10.10;99.90;;;;;;5102595;28;20426;-67
2022/03/17 04:47:35;;;;;;;10.23;6.10;;;9.90;99.90;;;;;;5101463;28;20044;-68
2022/03/17 04:50:01;;;;;;;9.93;6.53;;;9.80;99.90;;;;;;5095809;28;20127;-67
2022/03/17 04:55:10;;;;;;;11.25;7.70;;;9.70;99.90;;;;;;5099127;27;20108;-69
2022/03/17 04:57:36;;;;;;;11.20;7.80;;;9.50;99.90;;;;;;5104714;28;20047;-67
2022/03/17 05:00:03;;;;;;;9.68;6.57;;;9.40;99.90;;;;;;5106220;28;20034;-67
2022/03/17 05:02:28;;;;;;;9.80;7.25;;;9.30;99.90;;;;;;5104468;28;20457;-67
2022/03/17 05:04:54;;;;;;;10.70;7.18;;;9.30;99.90;;;;;;5104477;28;20044;-66
2022/03/17 05:07:20;;;;;;;8.95;5.90;;;9.20;99.90;;;;;;5098527;28;20032;-69
2022/03/17 05:09:45;;;;;;;8.10;5.80;;;9.10;99.90;;;;;;5103527;28;20042;-68
2022/03/17 05:12:11;;;;;;;9.80;5.97;;;9.10;99.90;;;;;;5098036;28;20084;-69
2022/03/17 05:14:37;;;;;;;8.05;5.50;;;9.00;99.90;;;;;;5081522;28;20036;-68
2022/03/17 05:17:03;;;;;;;11.32;6.68;;;8.90;99.90;;;;;;5100313;28;20051;-69
2022/03/17 05:19:29;;;;;;;10.25;6.13;;;8.90;99.90;;;;;;5106052;28;20126;-68
2022/03/17 05:21:54;;;;;;;11.07;7.15;;;8.90;99.90;;;;;;5106069;28;20036;-68
2022/03/17 05:24:20;;;;;;;11.88;6.53;;;8.90;99.90;;;;;;5105852;28;20042;-70
2022/03/17 05:26:45;;;;;;;8.98;5.93;;;8.80;99.90;;;;;;5101410;28;20040;-71
2022/03/17 05:29:12;;;;;;;10.55;6.18;;;8.90;99.90;;;;;;5102945;28;20058;-68
2022/03/17 05:31:37;;;;;;;9.60;7.03;;;8.90;99.90;;;;;;5101208;28;20676;-69
2022/03/17 05:34:04;;;;;;;12.55;7.43;;;8.80;99.90;;;;;;5107446;28;20137;-71
2022/03/17 05:36:29;;;;;;;12.27;7.72;;;8.80;99.90;;;;;;5105012;28;20043;-69
2022/03/17 05:38:55;;;;;;;11.85;6.93;;;8.70;99.90;;;;;;5102737;28;20066;-69
2022/03/17 05:41:22;;;;;;;14.77;7.00;;;8.80;99.90;;;;;;5082759;28;20378;-68
2022/03/17 05:43:47;;;;;;;14.82;8.00;;;8.70;99.90;;;;;;5091242;28;20043;-70
2022/03/17 05:46:14;;;;;;;14.23;7.43;;;8.70;99.90;;;;;;5098975;28;20124;-68
2022/03/17 05:48:40;;;;;;;13.00;7.93;;;8.80;99.90;;;;;;5079564;28;20151;-67
2022/03/17 05:51:06;;;;;;;14.85;7.82;;;8.70;99.90;;;;;;5096200;28;20167;-68
2022/03/17 05:53:32;;;;;;;15.23;6.85;;;8.80;99.90;;;;;;5099303;28;20139;-69
2022/03/17 05:55:57;;;;;;;12.88;7.15;;;8.80;99.90;;;;;;5093233;28;20048;-68
2022/03/17 05:58:23;;;;;;;12.60;7.10;;;8.80;99.90;;;;;;5099008;28;20035;-70
2022/03/17 06:00:48;;;;;;;12.88;7.38;;;8.70;99.90;;;;;;5101910;28;20050;-69
2022/03/17 06:03:14;;;;;;;12.57;7.10;;;8.70;99.90;;;;;;5102893;28;20083;-68
2022/03/17 06:05:40;;;;;;;13.60;6.75;;;8.80;99.90;;;;;;5078827;28;20046;-68
2022/03/17 06:08:05;;;;;;;13.40;6.22;;;8.70;99.90;;;;;;5104170;28;20039;-68
2022/03/17 06:10:33;;;;;;;14.13;6.53;;;8.70;99.90;;;;;;5084132;28;20086;-68
2022/03/17 06:13:00;;;;;;;15.45;6.43;;;8.70;99.90;;;;;;5092902;28;20141;-70
2022/03/17 06:15:27;;;;;;;14.02;6.22;;;8.70;99.90;;;;;;5093654;28;20043;-70
2022/03/17 06:17:59;;;;;;;12.65;4.90;;;8.70;99.90;;;;;;5096917;28;20075;-68
2022/03/17 06:20:30;;;;;;;12.43;5.32;;;8.70;99.90;;;;;;5082165;28;20108;-68
2022/03/17 06:22:58;;;;;;;14.23;4.63;;;8.60;99.90;;;;;;5093840;28;20145;-69
2022/03/17 06:25:26;;;;;;;12.80;3.95;;;8.60;99.90;;;;;;5077911;28;20066;-69
2022/03/17 06:27:53;;;;;;;12.40;4.22;;;8.60;99.90;;;;;;5108129;28;20073;-69
2022/03/17 06:30:26;;;;;;;10.35;3.20;;;8.60;99.90;;;;;;5106917;28;20047;-70
2022/03/17 06:32:54;;;;;;;10.65;3.40;;;8.60;99.90;;;;;;5100790;28;20565;-69
2022/03/17 06:35:22;;;;;;;9.30;3.05;;;8.60;99.90;;;;;;5106360;28;20106;-70
2022/03/17 06:37:54;;;;;;;13.50;3.13;;;8.50;99.90;;;;;;5101436;28;20043;-68
2022/03/17 06:40:21;;;;;;;10.02;2.72;;;8.60;99.90;;;;;;5079375;28;20067;-70
2022/03/17 06:42:47;;;;;;;10.00;2.75;;;8.50;99.90;;;;;;5095937;28;20045;-70
2022/03/17 06:45:13;;;;;;;11.05;2.60;;;8.50;99.90;;;;;;5072662;28;20062;-68
2022/03/17 06:47:40;;;;;;;13.20;2.70;;;8.50;99.90;;;;;;5073034;28;20078;-70
2022/03/17 06:50:06;;;;;;;12.10;2.95;;;8.50;99.90;;;;;;5100218;28;20038;-72
2022/03/17 06:52:32;;;;;;;12.27;3.00;;;8.50;99.90;;;;;;5098930;28;20099;-69
2022/03/17 06:54:57;;;;;;;11.93;2.67;;;8.40;99.90;;;;;;5102894;28;20047;-70
2022/03/17 06:57:23;;;;;;;9.75;2.70;;;8.40;99.90;;;;;;5100487;28;20068;-68
2022/03/17 06:59:50;;;;;;;13.45;2.92;;;8.50;99.90;;;;;;5086731;28;20050;-70
2022/03/17 07:02:17;;;;;;;13.27;2.80;;;8.50;99.90;;;;;;5075727;28;20093;-69
2022/03/17 07:04:43;;;;;;;10.93;2.22;;;8.50;99.90;;;;;;5068948;28;20048;-69
2022/03/17 07:07:09;;;;;;;10.88;2.00;;;8.50;99.90;;;;;;5088500;28;20040;-69
2022/03/17 07:09:36;;;;;;;9.73;2.00;;;8.60;99.90;;;;;;5107793;28;20115;-68
2022/03/17 07:12:02;;;;;;;12.98;1.98;;;8.60;99.90;;;;;;5083500;28;20088;-69
2022/03/17 07:14:27;;;;;;;10.43;2.00;;;8.60;99.90;;;;;;5094250;28;20054;-69
2022/03/17 07:16:53;;;;;;;11.20;2.00;;;8.60;99.90;;;;;;5101937;28;20052;-70
2022/03/17 07:19:18;;;;;;;12.02;2.67;;;8.60;99.90;;;;;;5110769;28;20155;-70
2022/03/17 07:21:44;;;;;;;11.55;2.80;;;8.60;99.90;;;;;;5100449;28;20109;-70
2022/03/17 07:24:10;;;;;;;11.02;2.75;;;8.60;99.90;;;;;;5104707;28;20439;-70
2022/03/17 07:26:36;;;;;;;14.40;2.92;;;8.50;99.90;;;;;;5091892;28;20040;-73
2022/03/17 07:29:02;;;;;;;12.60;2.22;;;8.50;99.90;;;;;;5091941;28;20040;-69
2022/03/17 07:31:29;;;;;;;12.27;2.33;;;8.50;99.90;;;;;;5105201;28;20172;-72
2022/03/17 07:33:55;;;;;;;11.90;2.17;;;8.50;99.90;;;;;;5090171;28;20036;-70
2022/03/17 07:36:21;;;;;;;11.43;2.55;;;8.50;99.90;;;;;;5089285;28;20044;-69
2022/03/17 07:38:47;;;;;;;10.57;2.33;;;8.50;99.90;;;;;;5102850;28;20069;-69
2022/03/17 07:41:14;;;;;;;13.55;2.13;;;8.50;99.90;;;;;;5106366;28;20040;-69
2022/03/17 07:43:41;;;;;;;14.13;2.15;;;8.50;99.90;;;;;;5093062;28;20040;-69
2022/03/17 07:46:07;;;;;;;13.30;2.78;;;8.40;99.90;;;;;;5088908;28;20052;-70
2022/03/17 07:48:32;;;;;;;17.17;3.95;;;8.40;99.90;;;;;;5089555;28;20044;-69
2022/03/17 07:50:58;;;;;;;14.32;4.47;;;8.40;99.90;;;;;;5089297;28;20105;-70
2022/03/17 07:53:24;;;;;;;17.80;5.20;;;8.50;99.90;;;;;;5101200;28;20411;-70
2022/03/17 07:55:54;;;;;;;19.15;5.85;;;8.40;99.90;;;;;;5089868;28;20044;-70
2022/03/17 07:58:26;;;;;;;27.25;7.38;;;8.40;99.90;;;;;;5095230;28;20036;-69
2022/03/17 08:00:53;;;;;;;20.23;6.50;;;8.40;99.90;;;;;;5108047;28;20126;-70
2022/03/17 08:03:19;;;;;;;18.75;5.32;;;8.40;99.90;;;;;;5111391;28;20036;-70
2022/03/17 08:05:48;;;;;;;14.48;4.78;;;8.40;99.90;;;;;;5078741;28;20044;-69
2022/03/17 08:08:15;;;;;;;22.00;7.13;;;8.50;99.90;;;;;;5097766;28;20048;-70
2022/03/17 08:10:41;;;;;;;23.80;9.05;;;8.40;99.90;;;;;;5108550;28;20043;-70
2022/03/17 08:13:09;;;;;;;20.35;7.63;;;8.40;99.90;;;;;;5097243;28;20035;-68
2022/03/17 08:15:38;;;;;;;16.50;5.55;;;8.40;99.90;;;;;;5089719;28;20048;-70
2022/03/17 08:18:04;;;;;;;15.65;5.57;;;8.40;99.90;;;;;;5102525;28;20044;-69
2022/03/17 08:20:30;;;;;;;20.38;5.70;;;8.30;99.90;;;;;;5109035;28;20142;-70
2022/03/17 08:22:56;;;;;;;28.92;7.55;;;8.30;99.90;;;;;;5109102;28;20047;-70
2022/03/17 08:25:22;;;;;;;25.80;8.35;;;8.20;99.90;;;;;;5105997;28;20051;-70
2022/03/17 08:27:50;;;;;;;24.05;7.22;;;8.30;99.90;;;;;;5092237;28;20124;-71
2022/03/17 08:30:16;;;;;;;18.33;6.10;;;8.30;99.90;;;;;;5092028;28;20044;-69
2022/03/17 08:32:42;;;;;;;23.05;5.65;;;8.40;99.90;;;;;;5101547;28;20044;-68
2022/03/17 08:35:09;;;;;;;25.27;6.70;;;8.40;99.90;;;;;;5105652;28;20058;-68
2022/03/17 08:37:39;;;;;;;16.45;5.43;;;8.50;99.90;;;;;;5091681;28;20556;-69
2022/03/17 08:40:06;;;;;;;18.60;5.97;;;8.50;99.90;;;;;;5106500;28;20178;-68
2022/03/17 08:42:31;;;;;;;18.35;5.15;;;8.50;99.90;;;;;;5090220;28;20043;-68
2022/03/17 08:44:57;;;;;;;14.20;4.03;;;8.50;99.90;;;;;;5096949;28;20035;-69
2022/03/17 08:50:07;;;;;;;14.05;3.70;;;8.60;99.90;;;;;;5093611;28;20442;-69
2022/03/17 08:52:32;;;;;;;12.18;3.10;;;8.60;99.90;;;;;;5096356;28;20470;-68
2022/03/17 08:54:58;;;;;;;27.15;7.80;;;8.70;99.90;;;;;;5094064;28;20036;-69
2022/03/17 08:57:24;;;;;;;24.83;7.75;;;8.80;99.90;;;;;;5087853;28;20442;-68
2022/03/17 08:59:49;;;;;;;22.85;7.28;;;8.90;99.90;;;;;;5089416;28;20114;-69
2022/03/17 09:02:15;;;;;;;14.65;4.05;;;9.00;99.90;;;;;;5091236;28;20031;-70
2022/03/17 09:04:41;;;;;;;16.02;4.18;;;9.10;99.90;;;;;;5071546;28;20043;-68
2022/03/17 09:07:07;;;;;;;15.68;4.20;;;9.00;99.90;;;;;;5088053;28;20048;-69
2022/03/17 09:09:35;;;;;;;13.95;3.75;;;9.00;99.90;;;;;;5071612;28;20043;-69
2022/03/17 09:12:05;;;;;;;13.00;3.88;;;9.00;99.90;;;;;;5087060;28;20218;-70
2022/03/17 09:14:40;;;;;;;11.75;3.08;;;8.90;99.90;;;;;;5094660;28;20051;-70
2022/03/17 09:17:05;;;;;;;15.82;3.35;;;8.80;99.90;;;;;;5102655;28;20068;-69
2022/03/17 09:19:32;;;;;;;11.75;2.47;;;8.70;99.90;;;;;;5097997;28;20067;-70
2022/03/17 09:21:58;;;;;;;12.60;2.80;;;8.80;99.90;;;;;;5094721;28;20060;-71
2022/03/17 09:24:24;;;;;;;13.40;3.45;;;8.80;99.90;;;;;;5098857;28;20477;-69
2022/03/17 09:26:49;;;;;;;17.92;4.05;;;8.80;99.90;;;;;;5106946;28;20036;-68
2022/03/17 09:29:16;;;;;;;18.13;4.50;;;8.90;99.90;;;;;;5106569;28;20096;-69
2022/03/17 09:31:42;;;;;;;14.68;3.63;;;8.90;99.90;;;;;;5072610;28;20047;-68
2022/03/17 09:34:09;;;;;;;14.63;3.00;;;8.90;99.90;;;;;;5107573;28;20430;-71
2022/03/17 09:36:34;;;;;;;13.57;2.90;;;8.90;99.90;;;;;;5105497;28;20437;-69
2022/03/17 09:41:44;;;;;;;12.38;2.70;;;8.90;99.90;;;;;;5105248;28;20128;-68
2022/03/17 09:44:10;;;;;;;10.57;2.78;;;8.90;99.90;;;;;;5096333;28;20512;-68
2022/03/17 09:46:36;;;;;;;11.73;3.08;;;9.00;99.90;;;;;;5106342;28;20499;-71
2022/03/17 09:49:04;;;;;;;13.90;3.30;;;9.00;99.90;;;;;;5097664;28;20031;-69
2022/03/17 09:51:30;;;;;;;16.88;3.53;;;9.10;99.90;;;;;;5096294;28;20048;-69
2022/03/17 09:54:00;;;;;;;13.35;2.95;;;9.10;99.90;;;;;;5087133;28;20052;-69
2022/03/17 09:56:26;;;;;;;12.18;2.75;;;9.20;99.90;;;;;;5102115;28;20078;-69
2022/03/17 09:58:53;;;;;;;6.30;1.75;;;9.30;99.90;;;;;;5096955;28;20374;-68
2022/03/17 10:01:22;;;;;;;8.23;1.83;;;9.50;99.90;;;;;;5069700;28;20351;-68
2022/03/17 10:03:48;;;;;;;7.03;1.33;;;9.60;99.90;;;;;;5100116;28;20502;-67
2022/03/17 10:06:17;;;;;;;7.45;1.70;;;9.60;99.90;;;;;;5105276;28;20047;-68
2022/03/17 10:08:45;;;;;;;10.23;1.73;;;9.70;99.90;;;;;;5098753;28;20700;-68
2022/03/17 10:11:15;;;;;;;7.80;1.40;;;9.70;99.90;;;;;;5106271;28;20047;-69
2022/03/17 10:13:45;;;;;;;9.40;1.60;;;9.70;99.90;;;;;;5090552;28;20469;-68
2022/03/17 10:16:17;;;;;;;9.82;2.47;;;9.90;99.90;;;;;;5081719;28;20412;-68
2022/03/17 10:18:43;;;;;;;8.00;2.17;;;9.90;99.90;;;;;;5088026;28;20134;-68
2022/03/17 10:21:16;;;;;;;9.90;1.98;;;10.10;99.90;;;;;;5101011;28;20526;-68
2022/03/17 10:23:49;;;;;;;10.93;2.10;;;10.20;99.90;;;;;;5093778;28;20101;-70
2022/03/17 10:26:42;;;;;;;8.98;1.90;;;10.30;99.90;;;;;;5087442;28;20044;-69
2022/03/17 10:29:20;;;;;;;8.18;1.85;;;10.40;99.90;;;;;;5104330;28;20074;-69
2022/03/17 10:32:01;;;;;;;9.13;2.58;;;10.50;99.90;;;;;;5088919;28;20051;-70
2022/03/17 10:34:33;;;;;;;12.00;2.40;;;10.40;99.90;;;;;;5091542;28;20036;-69
2022/03/17 10:37:09;;;;;;;12.40;2.10;;;10.40;99.90;;;;;;5093599;28;20086;-69
2022/03/17 10:39:45;;;;;;;10.18;2.30;;;10.40;99.40;;;;;;5087669;28;20040;-68
2022/03/17 10:42:12;;;;;;;6.68;1.67;;;10.30;99.90;;;;;;5098577;28;20070;-69
2022/03/17 10:44:40;;;;;;;12.52;2.60;;;10.30;99.50;;;;;;5097185;28;20338;-74
2022/03/17 10:47:06;;;;;;;10.15;1.83;;;10.30;99.90;;;;;;5098731;28;20047;-70
2022/03/17 10:49:33;;;;;;;11.38;2.03;;;10.30;99.90;;;;;;5088274;28;20156;-70
2022/03/17 10:51:59;;;;;;;6.65;1.33;;;10.20;99.40;;;;;;5091205;28;20047;-72
2022/03/17 10:54:24;;;;;;;9.40;1.70;;;10.30;98.10;;;;;;5092134;28;20036;-70
2022/03/17 10:57:11;;;;;;;8.07;1.92;;;10.40;97.40;;;;;;5066968;28;20119;-70
2022/03/17 10:59:47;;;;;;;11.77;1.65;;;10.60;96.80;;;;;;5103610;28;20059;-67
2022/03/17 11:02:17;;;;;;;7.53;1.50;;;10.50;95.80;;;;;;5069817;28;20036;-72
2022/03/17 11:04:44;;;;;;;7.82;1.55;;;10.50;95.10;;;;;;5101509;28;20147;-70
2022/03/17 11:07:13;;;;;;;7.38;1.88;;;10.60;94.80;;;;;;5105614;28;20393;-70
2022/03/17 11:09:40;;;;;;;7.60;2.22;;;10.70;94.90;;;;;;5107382;28;20066;-69
2022/03/17 11:12:11;;;;;;;5.97;1.30;;;10.70;93.80;;;;;;5097298;28;20027;-71
2022/03/17 11:14:44;;;;;;;6.03;1.42;;;10.60;92.00;;;;;;5104665;28;20412;-70
2022/03/17 11:17:14;;;;;;;8.90;1.50;;;10.60;92.40;;;;;;5101708;28;20075;-70
2022/03/17 11:19:42;;;;;;;9.05;1.77;;;10.50;92.20;;;;;;5099700;28;20042;-71
2022/03/17 11:22:10;;;;;;;8.60;1.60;;;10.60;94.30;;;;;;5109044;28;20049;-72
2022/03/17 11:24:38;;;;;;;6.93;1.45;;;10.60;93.50;;;;;;5109673;28;20073;-72
2022/03/17 11:27:14;;;;;;;6.35;1.45;;;10.50;91.90;;;;;;5107860;28;20130;-73
2022/03/17 11:29:47;;;;;;;8.40;1.58;;;10.50;92.40;;;;;;5106735;28;20055;-70
2022/03/17 11:32:29;;;;;;;9.43;2.67;;;10.60;93.60;;;;;;5100535;28;20109;-70
2022/03/17 11:35:18;;;;;;;8.02;1.55;;;10.70;95.50;;;;;;5101108;28;20043;-70
2022/03/17 11:37:44;;;;;;;10.90;2.35;;;10.70;93.70;;;;;;5104125;28;20044;-72
2022/03/17 11:40:19;;;;;;;10.65;2.40;;;10.80;94.10;;;;;;5093216;28;20516;-72
2022/03/17 11:43:04;;;;;;;13.43;2.35;;;10.80;94.40;;;;;;5108028;28;20468;-70
2022/03/17 11:45:30;;;;;;;11.15;2.10;;;10.80;94.80;;;;;;5103680;28;20063;-70
2022/03/17 11:47:58;;;;;;;8.60;2.00;;;10.80;94.60;;;;;;5109954;28;20081;-68
2022/03/17 11:50:28;;;;;;;10.70;2.20;;;11.00;94.40;;;;;;5108741;28;20126;-67
2022/03/17 11:53:03;;;;;;;7.85;1.80;;;11.10;94.40;;;;;;5097448;28;20373;-68
2022/03/17 11:55:42;;;;;;;8.60;2.17;;;11.00;92.20;;;;;;5083083;28;20576;-73
2022/03/17 11:58:24;;;;;;;9.25;1.88;;;10.90;92.20;;;;;;5089415;28;20536;-69
2022/03/17 12:01:00;;;;;;;9.48;2.33;;;11.00;94.20;;;;;;5087041;27;20036;-69
2022/03/17 12:03:38;;;;;;;10.85;2.00;;;11.10;93.60;;;;;;5099468;28;20143;-68
2022/03/17 12:06:07;;;;;;;8.15;1.83;;;11.10;92.90;;;;;;5100050;28;20071;-69
2022/03/17 12:08:43;;;;;;;9.25;1.85;;;11.20;93.10;;;;;;5103276;28;20044;-68
2022/03/17 12:11:14;;;;;;;8.43;2.20;;;11.30;92.20;;;;;;5105949;28;20039;-68
2022/03/17 12:14:03;;;;;;;11.75;2.00;;;11.50;91.80;;;;;;5083474;28;20040;-68
2022/03/17 12:16:40;;;;;;;13.10;2.10;;;11.50;90.70;;;;;;5099465;28;20062;-71
2022/03/17 12:19:06;;;;;;;7.25;1.50;;;11.50;89.00;;;;;;5108386;28;20104;-70
2022/03/17 12:22:03;;;;;;;7.50;1.70;;;11.50;90.30;;;;;;5107926;28;20366;-72
2022/03/17 12:24:53;;;;;;;12.43;2.22;;;11.50;90.00;;;;;;5082543;28;20043;-72
2022/03/17 12:27:20;;;;;;;11.93;2.63;;;11.40;90.10;;;;;;5104734;28;20063;-71
2022/03/17 12:29:49;;;;;;;6.40;1.85;;;11.30;90.00;;;;;;5098702;28;20044;-70
2022/03/17 12:32:21;;;;;;;7.85;1.33;;;11.20;88.90;;;;;;5084881;28;20130;-71
2022/03/17 12:34:49;;;;;;;7.70;1.85;;;11.20;88.50;;;;;;5102332;28;20058;-71
2022/03/17 12:37:16;;;;;;;8.45;2.00;;;11.20;89.50;;;;;;5101028;28;20563;-71
2022/03/17 12:39:42;;;;;;;9.02;1.73;;;11.40;87.40;;;;;;5092343;28;20130;-70
2022/03/17 12:42:17;;;;;;;7.70;1.83;;;11.30;87.80;;;;;;5091903;28;20051;-70
2022/03/17 12:44:54;;;;;;;10.48;1.98;;;11.30;88.30;;;;;;5099042;28;20043;-69
2022/03/17 12:47:23;;;;;;;13.27;2.42;;;11.40;87.30;;;;;;5101393;28;20043;-71
2022/03/17 12:49:50;;;;;;;7.25;1.50;;;11.40;85.60;;;;;;5076045;28;20087;-71
2022/03/17 12:52:20;;;;;;;8.27;1.85;;;11.50;86.30;;;;;;5087952;28;20040;-71
2022/03/17 12:54:46;;;;;;;8.27;1.73;;;11.60;83.60;;;;;;5097542;28;20709;-71
2022/03/17 12:57:12;;;;;;;7.72;1.45;;;11.70;84.30;;;;;;5104499;28;20383;-71
2022/03/17 12:59:37;;;;;;;7.10;1.33;;;11.80;81.00;;;;;;5097676;28;20140;-69